Time;durP1;ratioP1;P1;durP2;ratioP2;P2;SDS_P1;SDS_P2;PMS_P1;PMS_P2;Temp;Humidity;BMP_temperature;BMP_pressure;BME280_temperature;BME280_humidity;BME280_pressure;Samples;Min_cycle;Max_cycle;Signal;HPM_P1;HPM_P2
2023/09/28 00:01:13;;;;;;;21.98;11.20;;;;;;;11.66;84.69;100556.56;5036848;28;20047;-75
2023/09/28 00:03:38;;;;;;;19.33;10.48;;;;;;;11.63;84.73;100541.59;5019674;28;20052;-76
2023/09/28 00:06:04;;;;;;;22.10;10.60;;;;;;;11.65;84.58;100539.69;5039125;28;20040;-74
2023/09/28 00:08:29;;;;;;;28.33;10.88;;;;;;;11.64;84.73;100537.97;5043734;28;20044;-76
2023/09/28 00:10:55;;;;;;;12.25;9.27;;;;;;;11.64;84.67;100531.75;5043330;28;20043;-75
2023/09/28 00:13:20;;;;;;;17.25;10.75;;;;;;;11.63;84.74;100551.41;5044518;28;20051;-71
2023/09/28 00:15:46;;;;;;;23.38;11.10;;;;;;;11.61;85.00;100543.50;5040877;28;20044;-77
2023/09/28 00:18:12;;;;;;;17.52;10.50;;;;;;;11.61;84.92;100542.66;5030388;28;20056;-75
2023/09/28 00:20:38;;;;;;;15.55;9.82;;;;;;;11.59;84.63;100545.41;5034731;28;20047;-73
2023/09/28 00:23:04;;;;;;;15.50;10.55;;;;;;;11.60;84.45;100540.94;5059081;28;20052;-77
2023/09/28 00:25:29;;;;;;;17.75;9.75;;;;;;;11.58;84.89;100540.16;5061891;28;20077;-81
2023/09/28 00:27:55;;;;;;;17.80;10.07;;;;;;;11.58;84.65;100538.34;5065731;28;20046;-77
2023/09/28 00:30:22;;;;;;;14.77;10.50;;;;;;;11.57;84.47;100557.13;5055988;28;20025;-80
2023/09/28 00:32:49;;;;;;;18.30;10.15;;;;;;;11.58;84.57;100538.34;5044499;28;20050;-77
2023/09/28 00:35:16;;;;;;;21.30;10.65;;;;;;;11.58;84.66;100532.16;5040498;28;20106;-78
2023/09/28 00:37:44;;;;;;;15.52;10.25;;;;;;;11.57;84.60;100557.13;5049181;28;20047;-80
2023/09/28 00:40:31;;;;;;;15.00;9.77;;;;;;;11.55;84.75;100527.00;5032065;28;20038;-75
2023/09/28 00:42:59;;;;;;;18.25;11.00;;;;;;;11.55;84.75;100537.66;5059042;28;20055;-77
2023/09/28 00:45:25;;;;;;;19.20;10.77;;;;;;;11.54;84.88;100551.97;5049450;28;20418;-78
2023/09/28 00:47:59;;;;;;;18.40;9.50;;;;;;;11.55;84.39;100532.31;5022742;28;20048;-76
2023/09/28 00:50:26;;;;;;;14.77;9.02;;;;;;;11.51;84.49;100525.47;5038086;28;20044;-77
2023/09/28 00:52:54;;;;;;;13.82;8.63;;;;;;;11.49;84.58;100528.25;5039173;28;20047;-79
2023/09/28 00:55:20;;;;;;;16.65;9.93;;;;;;;11.49;85.11;100506.03;5044909;28;20437;-78
2023/09/28 00:57:47;;;;;;;20.98;9.30;;;;;;;11.49;84.79;100546.06;5029072;28;20063;-77
2023/09/28 01:00:26;;;;;;;17.48;10.48;;;;;;;11.46;84.92;100555.13;5039996;28;20040;-76
2023/09/28 01:02:53;;;;;;;14.77;9.40;;;;;;;11.46;84.79;100535.56;5032104;28;20400;-77
2023/09/28 01:05:26;;;;;;;17.15;9.90;;;;;;;11.45;85.46;100542.72;5046116;28;20040;-73
2023/09/28 01:07:52;;;;;;;15.77;9.40;;;;;;;11.45;85.41;100539.19;5023295;28;20044;-75
2023/09/28 01:10:23;;;;;;;21.10;10.80;;;;;;;11.43;85.47;100536.59;5040880;28;20048;-74
2023/09/28 01:12:50;;;;;;;15.45;9.80;;;;;;;11.41;85.57;100556.34;5023425;28;20048;-78
2023/09/28 01:15:16;;;;;;;16.63;9.77;;;;;;;11.41;86.06;100541.19;5040384;28;20050;-74
2023/09/28 01:17:43;;;;;;;20.42;11.43;;;;;;;11.40;86.17;100538.63;5023858;28;20055;-76
2023/09/28 01:20:23;;;;;;;18.60;10.10;;;;;;;11.38;86.24;100535.19;5057008;28;20047;-80
2023/09/28 01:22:50;;;;;;;17.27;10.07;;;;;;;11.39;85.78;100544.91;5056629;28;20040;-76
2023/09/28 01:25:16;;;;;;;14.43;9.35;;;;;;;11.36;86.19;100535.28;5047790;28;20045;-73
2023/09/28 01:27:48;;;;;;;15.80;8.60;;;;;;;11.39;85.77;100536.91;5019051;28;20052;-77
2023/09/28 01:30:14;;;;;;;13.60;9.18;;;;;;;11.35;85.84;100530.03;5035753;28;20056;-74
2023/09/28 01:32:40;;;;;;;13.30;9.55;;;;;;;11.34;85.49;100518.47;5022808;28;20044;-76
2023/09/28 01:35:06;;;;;;;17.33;8.88;;;;;;;11.33;85.66;100522.09;5006225;28;20700;-74
2023/09/28 01:37:39;;;;;;;20.02;10.45;;;;;;;11.32;86.47;100519.53;5037453;28;20064;-73
2023/09/28 01:40:05;;;;;;;16.60;10.02;;;;;;;11.27;86.13;100522.50;5020262;28;20044;-74
2023/09/28 01:42:30;;;;;;;14.45;9.75;;;;;;;11.26;86.75;100542.97;5019311;28;20055;-77
2023/09/28 01:44:55;;;;;;;23.02;9.82;;;;;;;11.25;86.36;100530.59;5015270;28;20036;-73
2023/09/28 01:47:21;;;;;;;13.88;8.55;;;;;;;11.22;86.03;100546.78;5017165;28;20040;-75
2023/09/28 01:49:46;;;;;;;15.57;8.68;;;;;;;11.22;86.74;100525.41;5024125;28;20040;-73
2023/09/28 01:52:11;;;;;;;15.10;9.30;;;;;;;11.21;86.77;100529.03;5050400;28;20048;-75
2023/09/28 01:54:36;;;;;;;19.77;11.07;;;;;;;11.20;86.64;100526.44;5032507;28;20037;-74
2023/09/28 01:57:01;;;;;;;14.73;8.75;;;;;;;11.19;86.58;100536.28;5003375;28;20503;-78
2023/09/28 01:59:27;;;;;;;14.52;9.82;;;;;;;11.19;87.10;100536.28;5039423;28;20044;-75
2023/09/28 02:01:52;;;;;;;16.52;8.98;;;;;;;11.17;86.69;100532.81;5020085;28;20052;-73
2023/09/28 02:04:18;;;;;;;17.33;9.27;;;;;;;11.17;86.66;100530.16;5038222;28;20083;-77
2023/09/28 02:06:43;;;;;;;19.15;9.02;;;;;;;11.16;86.97;100504.44;5016012;28;20052;-74
2023/09/28 02:09:10;;;;;;;13.98;8.68;;;;;;;11.15;87.25;100524.09;5023049;28;20044;-72
2023/09/28 02:11:43;;;;;;;18.92;9.27;;;;;;;11.16;87.05;100530.28;5025632;28;20044;-72
2023/09/28 02:14:09;;;;;;;16.95;8.75;;;;;;;11.14;86.87;100543.72;5008585;28;20047;-72
2023/09/28 02:16:35;;;;;;;13.30;8.32;;;;;;;11.11;87.14;100538.53;5002082;28;20071;-72
2023/09/28 02:19:01;;;;;;;19.67;8.05;;;;;;;11.11;87.02;100540.34;5039646;28;20051;-72
2023/09/28 02:21:26;;;;;;;13.93;8.02;;;;;;;11.09;87.22;100540.44;5019840;28;20450;-72
2023/09/28 02:23:53;;;;;;;15.88;9.35;;;;;;;11.07;87.21;100536.13;5038728;28;20415;-71
2023/09/28 02:26:19;;;;;;;12.85;8.13;;;;;;;11.09;86.65;100545.78;5037171;28;20407;-72
2023/09/28 02:28:44;;;;;;;15.93;9.25;;;;;;;11.06;86.81;100535.28;5019546;28;20482;-72
2023/09/28 02:31:09;;;;;;;16.05;8.45;;;;;;;11.03;86.76;100535.47;5022767;28;20059;-76
2023/09/28 02:33:35;;;;;;;17.10;7.90;;;;;;;11.02;86.80;100544.44;5008850;28;20044;-75
2023/09/28 02:36:00;;;;;;;16.20;9.00;;;;;;;10.99;87.14;100563.28;5028536;28;20044;-73
2023/09/28 02:38:25;;;;;;;13.88;8.68;;;;;;;10.99;86.96;100549.94;5025305;28;20045;-71
2023/09/28 02:40:50;;;;;;;16.42;8.07;;;;;;;10.97;87.50;100545.63;5036298;28;20051;-69
2023/09/28 02:43:16;;;;;;;13.73;8.30;;;;;;;10.97;87.61;100543.84;5057608;28;20048;-70
2023/09/28 02:45:42;;;;;;;13.60;8.55;;;;;;;10.96;87.58;100543.91;5035402;28;20063;-70
2023/09/28 02:48:08;;;;;;;17.20;8.32;;;;;;;10.94;87.47;100536.03;5020037;28;20044;-70
2023/09/28 02:50:33;;;;;;;15.95;8.98;;;;;;;10.97;87.28;100540.31;5020101;28;20045;-70
2023/09/28 02:52:59;;;;;;;13.70;8.82;;;;;;;10.95;86.96;100553.72;5017657;28;20045;-69
2023/09/28 02:55:24;;;;;;;13.13;6.90;;;;;;;10.95;87.14;100542.22;4998627;28;20064;-70
2023/09/28 02:57:49;;;;;;;12.88;7.30;;;;;;;10.94;86.84;100536.03;4991601;28;20048;-71
2023/09/28 03:02:43;;;;;;;12.90;7.88;;;;;;;10.90;87.24;100529.16;5060293;28;20047;-71
2023/09/28 03:05:10;;;;;;;19.35;7.30;;;;;;;10.87;87.22;100545.31;5040180;28;20044;-71
2023/09/28 03:07:37;;;;;;;13.07;7.95;;;;;;;10.86;87.16;100527.59;5056402;28;20051;-72
2023/09/28 03:10:06;;;;;;;16.27;8.75;;;;;;;10.84;87.08;100545.50;5021272;28;20052;-71
2023/09/28 03:12:32;;;;;;;15.05;8.63;;;;;;;10.81;87.55;100529.69;5021332;28;20048;-71
2023/09/28 03:14:57;;;;;;;11.68;7.50;;;;;;;10.79;87.52;100540.44;5038907;28;20054;-71
2023/09/28 03:17:23;;;;;;;19.38;8.65;;;;;;;10.80;87.39;100543.97;5023588;28;20040;-70
2023/09/28 03:19:48;;;;;;;14.27;8.32;;;;;;;10.81;86.86;100535.03;5038842;28;20048;-70
2023/09/28 03:22:13;;;;;;;14.43;8.82;;;;;;;10.79;86.85;100536.91;5054182;28;20126;-72
2023/09/28 03:24:39;;;;;;;13.52;8.57;;;;;;;10.76;86.96;100534.41;5031643;28;20066;-72
2023/09/28 03:27:08;;;;;;;15.90;8.40;;;;;;;10.77;87.32;100533.47;5019534;28;20043;-72
2023/09/28 03:29:33;;;;;;;24.77;9.27;;;;;;;10.76;88.00;100531.75;5036824;28;20052;-71
2023/09/28 03:31:58;;;;;;;14.30;8.05;;;;;;;10.76;87.93;100527.28;5016171;28;20040;-69
2023/09/28 03:34:24;;;;;;;19.38;8.73;;;;;;;10.76;88.08;100537.94;5017998;28;20052;-71
2023/09/28 03:36:50;;;;;;;13.27;8.55;;;;;;;10.80;88.09;100533.31;5019304;28;20055;-72
2023/09/28 03:39:16;;;;;;;16.15;8.40;;;;;;;10.81;87.87;100529.69;5052058;28;20048;-69
2023/09/28 03:41:41;;;;;;;11.77;7.80;;;;;;;10.83;88.39;100528.66;5033916;28;20040;-70
2023/09/28 03:44:07;;;;;;;16.15;8.23;;;;;;;10.86;88.11;100548.94;5030553;28;20048;-69
2023/09/28 03:46:32;;;;;;;15.70;8.57;;;;;;;10.89;87.72;100538.09;5018159;28;20051;-71
2023/09/28 03:48:58;;;;;;;13.35;8.98;;;;;;;10.94;87.78;100540.50;5041149;28;20052;-71
2023/09/28 03:51:23;;;;;;;12.68;8.02;;;;;;;10.99;87.61;100531.25;5034759;28;20047;-72
2023/09/28 03:53:48;;;;;;;15.27;7.43;;;;;;;11.06;87.44;100524.59;5055740;28;20051;-71
2023/09/28 03:56:13;;;;;;;17.55;9.05;;;;;;;11.13;87.00;100531.31;5039611;28;20466;-72
2023/09/28 03:58:39;;;;;;;15.20;7.85;;;;;;;11.20;87.08;100539.81;5024669;28;20063;-70
2023/09/28 04:01:07;;;;;;;12.95;7.70;;;;;;;11.28;86.41;100533.06;5054589;28;20044;-74
2023/09/28 04:03:33;;;;;;;17.50;8.20;;;;;;;11.39;86.03;100542.25;5024018;28;20048;-73
2023/09/28 04:05:58;;;;;;;18.20;8.90;;;;;;;11.49;85.96;100548.75;5059406;28;20048;-73
2023/09/28 04:08:24;;;;;;;13.88;8.70;;;;;;;11.58;85.07;100549.03;5005383;28;20523;-74
2023/09/28 04:10:50;;;;;;;13.05;8.63;;;;;;;11.69;84.90;100539.50;5021435;28;20040;-73
2023/09/28 04:13:16;;;;;;;18.27;8.48;;;;;;;11.83;84.26;100543.06;5021111;28;20426;-73
2023/09/28 04:15:41;;;;;;;12.38;7.63;;;;;;;11.98;83.62;100546.56;5049526;28;20491;-71
2023/09/28 04:18:08;;;;;;;15.05;9.10;;;;;;;12.11;82.70;100541.31;5040045;28;20051;-73
2023/09/28 04:20:33;;;;;;;14.75;8.13;;;;;;;12.22;81.59;100517.44;5062801;28;20046;-73
2023/09/28 04:22:58;;;;;;;15.10;7.80;;;;;;;12.32;80.94;100542.63;5041357;28;20063;-71
2023/09/28 04:25:26;;;;;;;13.10;7.07;;;;;;;12.44;80.54;100549.00;5040496;28;20055;-73
2023/09/28 04:27:52;;;;;;;12.10;8.10;;;;;;;12.57;79.47;100540.06;5058779;28;20368;-73
2023/09/28 04:30:18;;;;;;;12.93;7.53;;;;;;;12.69;79.46;100541.94;5024066;28;20048;-73
2023/09/28 04:32:43;;;;;;;11.48;8.10;;;;;;;12.82;78.47;100527.75;5040524;28;20036;-73
2023/09/28 04:35:10;;;;;;;13.73;7.90;;;;;;;12.93;77.86;100535.94;5040376;28;20040;-75
2023/09/28 04:37:37;;;;;;;11.85;7.47;;;;;;;13.05;77.05;100532.44;5058467;28;20059;-73
2023/09/28 04:40:02;;;;;;;10.43;6.88;;;;;;;13.19;76.17;100539.56;5058344;28;20482;-71
2023/09/28 04:42:30;;;;;;;14.52;8.40;;;;;;;13.33;76.22;100540.31;5058333;28;20048;-73
2023/09/28 04:44:55;;;;;;;22.58;12.82;;;;;;;13.47;75.47;100558.13;5058507;28;20036;-70
2023/09/28 04:47:20;;;;;;;12.02;7.78;;;;;;;13.65;74.37;100530.06;5058970;28;20391;-72
2023/09/28 04:49:46;;;;;;;12.00;7.43;;;;;;;13.86;74.06;100526.84;5059136;28;20048;-71
2023/09/28 04:52:13;;;;;;;20.20;8.98;;;;;;;14.06;73.75;100528.94;5040303;28;20414;-72
2023/09/28 04:54:39;;;;;;;10.80;7.70;;;;;;;14.36;72.79;100536.59;5058364;28;20039;-72
2023/09/28 04:57:05;;;;;;;13.95;8.23;;;;;;;14.49;70.75;100526.72;5055364;28;20053;-74
2023/09/28 04:59:30;;;;;;;14.80;8.55;;;;;;;14.65;70.19;100532.66;5057660;28;20502;-72
2023/09/28 05:01:57;;;;;;;12.80;7.72;;;;;;;14.77;68.99;100533.59;5039748;28;20793;-72
2023/09/28 05:04:22;;;;;;;15.13;8.90;;;;;;;14.94;68.95;100524.25;5057820;28;20039;-72
2023/09/28 05:06:47;;;;;;;11.70;7.40;;;;;;;15.06;68.57;100526.00;5057720;28;20483;-73
2023/09/28 05:09:13;;;;;;;11.70;7.20;;;;;;;15.34;67.99;100524.75;5022595;28;20529;-71
2023/09/28 05:11:39;;;;;;;14.02;7.68;;;;;;;15.50;66.79;100553.00;5039806;28;20044;-72
2023/09/28 05:14:04;;;;;;;13.68;7.53;;;;;;;15.73;65.39;100527.03;5057788;28;20071;-73
2023/09/28 05:16:29;;;;;;;11.80;6.80;;;;;;;16.23;64.96;100551.75;5021817;28;20047;-71
2023/09/28 05:18:55;;;;;;;12.20;7.40;;;;;;;16.58;63.77;100530.06;5037240;28;20053;-72
2023/09/28 05:21:20;;;;;;;10.52;7.10;;;;;;;16.93;61.96;100519.91;5037855;28;20522;-74
2023/09/28 05:23:45;;;;;;;10.57;6.78;;;;;;;17.32;61.23;100510.28;5056962;28;20402;-74
2023/09/28 05:26:10;;;;;;;12.95;7.07;;;;;;;17.60;59.62;100514.16;5021456;28;20044;-75
2023/09/28 05:28:36;;;;;;;14.07;6.97;;;;;;;17.74;58.81;100521.91;5036766;28;20119;-74
2023/09/28 05:31:01;;;;;;;13.38;8.05;;;;;;;18.04;58.75;100512.13;5036950;28;20487;-73
2023/09/28 05:33:26;;;;;;;16.52;7.15;;;;;;;18.34;57.45;100516.63;5019179;28;20033;-74
2023/09/28 05:35:52;;;;;;;9.80;6.68;;;;;;;18.48;56.14;100510.84;5037118;28;20044;-73
2023/09/28 05:38:17;;;;;;;13.95;7.03;;;;;;;18.49;55.44;100505.31;5036486;28;20040;-73
2023/09/28 05:40:42;;;;;;;10.23;7.72;;;;;;;18.38;55.66;100510.81;5018662;28;20052;-73
2023/09/28 05:43:08;;;;;;;10.80;7.75;;;;;;;18.38;55.48;100515.38;5018874;28;20041;-74
2023/09/28 05:45:33;;;;;;;12.43;7.55;;;;;;;18.85;55.61;100513.75;5037077;28;20048;-72
2023/09/28 05:47:58;;;;;;;11.38;7.40;;;;;;;19.48;54.14;100523.16;5021656;28;20048;-73
2023/09/28 05:50:23;;;;;;;11.98;7.75;;;;;;;20.18;52.34;100483.88;5056549;28;20056;-71
2023/09/28 05:52:52;;;;;;;11.30;7.05;;;;;;;20.80;50.26;100522.00;5021973;28;20036;-73
2023/09/28 05:55:17;;;;;;;12.23;6.80;;;;;;;21.47;48.89;100517.88;5055781;28;20071;-73
2023/09/28 05:57:43;;;;;;;18.13;7.90;;;;;;;22.15;46.86;100515.25;5036245;28;20055;-72
2023/09/28 06:00:09;;;;;;;10.40;6.80;;;;;;;22.79;44.65;100520.13;5036183;28;20052;-72
2023/09/28 06:02:36;;;;;;;10.77;6.88;;;;;;;23.44;43.17;100531.88;5018487;28;20503;-74
2023/09/28 06:05:01;;;;;;;12.88;7.50;;;;;;;23.88;42.29;100498.84;5018555;28;20040;-72
2023/09/28 06:07:30;;;;;;;16.60;7.57;;;;;;;24.11;41.82;100502.50;5018884;28;20048;-72
2023/09/28 06:09:56;;;;;;;11.93;6.95;;;;;;;24.26;41.41;100502.66;5048654;28;20043;-73
2023/09/28 06:12:21;;;;;;;11.63;6.90;;;;;;;23.87;40.91;100500.69;5018021;28;20039;-73
2023/09/28 06:14:46;;;;;;;9.65;6.45;;;;;;;23.57;41.77;100509.63;5001072;28;20059;-73
2023/09/28 06:17:12;;;;;;;11.20;6.38;;;;;;;23.72;41.62;100507.03;4988692;28;20043;-73
2023/09/28 06:19:37;;;;;;;9.82;6.15;;;;;;;24.18;41.77;100498.03;5033869;28;20044;-74
2023/09/28 06:22:04;;;;;;;10.93;6.93;;;;;;;24.93;40.17;100501.09;5053793;28;20048;-72
2023/09/28 06:24:30;;;;;;;10.30;6.57;;;;;;;25.82;38.17;100494.00;5053294;28;20532;-72
2023/09/28 06:26:55;;;;;;;9.65;6.50;;;;;;;26.89;36.83;100500.63;5018180;28;20040;-74
2023/09/28 06:29:21;;;;;;;9.40;6.15;;;;;;;27.87;34.92;100482.59;5017897;28;20040;-72
2023/09/28 06:31:46;;;;;;;13.32;7.57;;;;;;;28.70;32.60;100482.34;5035804;28;20040;-74
2023/09/28 06:34:11;;;;;;;7.82;6.20;;;;;;;29.37;32.29;100480.56;5034554;28;20502;-73
2023/09/28 06:36:37;;;;;;;12.10;6.38;;;;;;;30.08;30.89;100481.56;5007441;28;20046;-73
2023/09/28 06:39:04;;;;;;;11.80;7.10;;;;;;;30.68;29.69;100476.69;5055664;28;20044;-74
2023/09/28 06:41:30;;;;;;;15.50;7.35;;;;;;;31.06;28.60;100468.38;5055727;28;20040;-74
2023/09/28 06:43:55;;;;;;;13.40;6.90;;;;;;;31.25;28.47;100472.94;5053266;28;20060;-73
2023/09/28 06:46:21;;;;;;;10.25;6.95;;;;;;;31.65;28.29;100462.44;5055524;28;20043;-71
2023/09/28 06:48:46;;;;;;;13.93;7.25;;;;;;;32.08;27.39;100456.84;5020463;28;20052;-73
2023/09/28 06:51:12;;;;;;;8.90;6.70;;;;;;;32.40;26.64;100456.69;5037582;28;20043;-75
2023/09/28 06:53:38;;;;;;;20.55;6.65;;;;;;;32.80;26.40;100448.75;5055266;28;20032;-74
2023/09/28 06:56:05;;;;;;;11.48;6.65;;;;;;;33.25;25.81;100468.47;5037115;28;20036;-74
2023/09/28 06:58:30;;;;;;;14.35;7.43;;;;;;;33.45;25.49;100401.78;5020421;28;20085;-74
2023/09/28 07:00:56;;;;;;;10.15;7.05;;;;;;;33.81;25.13;100472.63;5014713;28;20143;-74
2023/09/28 07:03:22;;;;;;;7.35;6.63;;;;;;;33.85;25.02;100441.47;5015249;28;20059;-74
2023/09/28 07:05:47;;;;;;;10.45;6.43;;;;;;;33.67;24.68;100440.72;5040722;28;20048;-73
2023/09/28 07:08:12;;;;;;;14.13;6.63;;;;;;;33.74;24.84;100422.94;5053303;28;20051;-75
2023/09/28 07:10:38;;;;;;;8.32;6.53;;;;;;;34.05;24.51;100418.94;5037580;28;20044;-77
2023/09/28 07:13:05;;;;;;;11.82;5.70;;;;;;;33.90;24.16;100426.88;5055085;28;20063;-74
2023/09/28 07:15:32;;;;;;;11.38;5.88;;;;;;;33.36;24.53;100423.41;5037256;28;20380;-74
2023/09/28 07:17:58;;;;;;;9.27;6.53;;;;;;;33.08;24.95;100428.75;5055554;28;20047;-74
2023/09/28 07:20:26;;;;;;;9.63;6.20;;;;;;;33.54;24.71;100415.00;5036794;28;20036;-74
2023/09/28 07:22:51;;;;;;;10.00;6.85;;;;;;;34.35;23.88;100412.34;5037273;28;20471;-75
2023/09/28 07:25:17;;;;;;;12.38;7.05;;;;;;;34.94;23.46;100411.84;5054982;28;20410;-74
2023/09/28 07:27:43;;;;;;;10.23;5.60;;;;;;;35.65;22.50;100417.72;5053029;28;20063;-75
2023/09/28 07:30:08;;;;;;;11.38;5.80;;;;;;;36.36;22.08;100405.63;5038058;28;20498;-76
2023/09/28 07:32:35;;;;;;;12.07;6.80;;;;;;;37.04;21.44;100411.63;5038690;28;20035;-76
2023/09/28 07:35:01;;;;;;;9.00;5.95;;;;;;;37.35;21.11;100421.94;5020364;28;20039;-76
2023/09/28 07:37:27;;;;;;;7.45;6.03;;;;;;;37.63;20.63;100417.97;5036979;28;20491;-76
2023/09/28 07:39:53;;;;;;;8.23;6.47;;;;;;;37.77;20.43;100410.81;5037417;28;20403;-76
2023/09/28 07:42:19;;;;;;;6.10;5.50;;;;;;;38.20;20.08;100406.00;5053074;28;20075;-73
2023/09/28 07:44:44;;;;;;;8.30;6.15;;;;;;;38.62;19.41;100418.97;5055104;28;20040;-75
2023/09/28 07:47:09;;;;;;;10.27;6.05;;;;;;;38.53;19.49;100395.53;5055340;28;20047;-76
2023/09/28 07:49:34;;;;;;;11.93;6.30;;;;;;;38.12;19.53;100400.97;5051481;28;20835;-76
2023/09/28 07:52:00;;;;;;;8.07;6.47;;;;;;;37.83;19.75;100403.31;5035475;28;20048;-75
2023/09/28 07:54:26;;;;;;;7.97;6.07;;;;;;;37.63;19.95;100395.69;5035247;28;20037;-76
2023/09/28 07:56:51;;;;;;;10.55;6.35;;;;;;;37.78;19.99;100398.56;5013940;28;20049;-76
2023/09/28 07:59:16;;;;;;;9.80;6.38;;;;;;;37.75;19.77;100395.47;5015945;28;20052;-75
2023/09/28 08:01:42;;;;;;;11.60;6.55;;;;;;;37.90;19.43;100400.31;5015014;28;20044;-73
2023/09/28 08:04:08;;;;;;;9.18;6.05;;;;;;;38.45;19.17;100391.31;5014025;28;20045;-74
2023/09/28 08:06:34;;;;;;;6.72;5.18;;;;;;;38.35;19.19;100385.72;4981017;28;20049;-76
2023/09/28 08:08:59;;;;;;;8.10;5.80;;;;;;;38.73;18.93;100382.47;5015097;28;20484;-75
2023/09/28 08:11:25;;;;;;;6.55;5.80;;;;;;;38.38;18.85;100380.44;5015428;28;20420;-79
2023/09/28 08:13:50;;;;;;;7.35;5.75;;;;;;;38.43;18.74;100393.53;4998584;28;20492;-78
2023/09/28 08:16:15;;;;;;;10.05;6.55;;;;;;;38.88;18.43;100378.88;5015237;28;20045;-78
2023/09/28 08:18:40;;;;;;;9.18;6.40;;;;;;;39.39;18.26;100378.88;4996594;28;20060;-78
2023/09/28 08:21:06;;;;;;;11.20;5.80;;;;;;;40.05;17.83;100384.28;5015581;28;20044;-76
2023/09/28 08:23:32;;;;;;;7.68;5.75;;;;;;;39.75;17.91;100374.88;5016061;28;20824;-78
2023/09/28 08:25:57;;;;;;;7.88;6.70;;;;;;;40.02;17.73;100366.16;5019214;28;20522;-78
2023/09/28 08:28:22;;;;;;;14.25;6.35;;;;;;;40.77;17.28;100354.81;5033478;28;20127;-77
2023/09/28 08:30:48;;;;;;;11.05;6.45;;;;;;;41.09;16.86;100366.25;5050534;28;20049;-75
2023/09/28 08:33:13;;;;;;;8.50;6.35;;;;;;;41.41;16.25;100353.69;5036682;28;20522;-77
2023/09/28 08:35:38;;;;;;;6.90;5.80;;;;;;;41.90;16.08;100345.81;5039521;28;20407;-77
2023/09/28 08:38:04;;;;;;;9.40;6.25;;;;;;;41.29;16.05;100357.72;5038054;28;20040;-76
2023/09/28 08:40:30;;;;;;;10.65;6.13;;;;;;;41.18;16.48;100344.97;5038119;28;20115;-75
2023/09/28 08:43:02;;;;;;;8.20;6.53;;;;;;;40.44;16.36;100357.25;5038124;28;20064;-74
2023/09/28 08:45:31;;;;;;;8.35;7.18;;;;;;;40.56;16.74;100346.56;5036343;28;20052;-74
2023/09/28 08:47:58;;;;;;;8.55;6.10;;;;;;;40.82;16.58;100352.81;5037327;28;20502;-77
2023/09/28 08:50:31;;;;;;;7.60;6.63;;;;;;;40.90;16.29;100337.38;5020075;28;20048;-76
2023/09/28 08:52:57;;;;;;;6.50;5.90;;;;;;;41.39;16.12;100344.75;5018033;28;20040;-74
2023/09/28 08:55:24;;;;;;;10.20;6.18;;;;;;;41.87;15.77;100332.44;5017062;28;20041;-75
2023/09/28 08:57:50;;;;;;;12.88;6.43;;;;;;;41.80;15.66;100342.31;5031505;28;20056;-75
2023/09/28 09:00:22;;;;;;;7.57;6.88;;;;;;;42.13;15.65;100337.72;5019991;28;20040;-76
2023/09/28 09:02:49;;;;;;;7.55;5.90;;;;;;;42.36;15.33;100325.59;5037757;28;20044;-73
2023/09/28 09:05:14;;;;;;;8.73;6.78;;;;;;;42.14;15.39;100319.75;5019576;28;20051;-75
2023/09/28 09:07:42;;;;;;;7.82;6.13;;;;;;;41.24;16.02;100317.75;5020147;28;20044;-75
2023/09/28 09:10:12;;;;;;;6.65;5.95;;;;;;;40.98;16.13;100317.13;5019844;28;20044;-74
2023/09/28 09:12:39;;;;;;;6.80;6.15;;;;;;;41.29;16.35;100324.16;5019013;28;20052;-74
2023/09/28 09:15:05;;;;;;;7.45;5.72;;;;;;;41.79;15.81;100319.09;5037426;28;20045;-74
2023/09/28 09:17:34;;;;;;;7.65;6.38;;;;;;;40.91;16.15;100313.88;5020053;28;20055;-75
2023/09/28 09:20:00;;;;;;;8.60;6.60;;;;;;;40.59;16.46;100312.44;5054598;28;20067;-75
2023/09/28 09:22:27;;;;;;;7.22;5.97;;;;;;;40.70;16.46;100313.22;5041853;28;20055;-77
2023/09/28 09:24:54;;;;;;;9.40;6.05;;;;;;;39.97;16.51;100296.34;5058243;28;20048;-75
2023/09/28 09:27:28;;;;;;;6.60;5.93;;;;;;;39.56;17.30;100318.84;5022769;28;20051;-77
2023/09/28 09:30:14;;;;;;;8.70;6.20;;;;;;;39.30;17.08;100313.56;5022234;28;20059;-75
2023/09/28 09:32:42;;;;;;;8.57;6.03;;;;;;;38.40;17.95;100322.50;5021530;28;20048;-71
2023/09/28 09:35:10;;;;;;;9.00;5.57;;;;;;;38.67;17.96;100327.00;5038779;28;20414;-72
2023/09/28 09:37:41;;;;;;;6.00;5.30;;;;;;;38.81;17.98;100315.03;5038722;28;20530;-72
2023/09/28 09:40:12;;;;;;;7.38;5.60;;;;;;;38.99;17.69;100307.22;5021686;28;20062;-73
2023/09/28 09:42:37;;;;;;;5.53;5.00;;;;;;;38.99;17.71;100308.06;5039004;28;20051;-71
2023/09/28 09:45:04;;;;;;;5.10;4.60;;;;;;;38.47;17.83;100277.66;5040334;28;20419;-74
2023/09/28 09:47:30;;;;;;;6.90;5.80;;;;;;;37.17;18.70;100291.63;5034827;28;20048;-72
2023/09/28 09:49:56;;;;;;;9.25;6.10;;;;;;;36.58;19.99;100232.50;5036553;28;20041;-75
2023/09/28 09:52:24;;;;;;;6.35;5.43;;;;;;;36.77;19.53;100292.16;5036447;28;20047;-72
2023/09/28 09:54:49;;;;;;;8.93;5.30;;;;;;;36.64;19.40;100264.81;5036283;28;20036;-72
2023/09/28 09:57:16;;;;;;;6.75;5.80;;;;;;;36.24;19.74;100227.22;5019991;28;20052;-73
2023/09/28 09:59:53;;;;;;;7.55;4.93;;;;;;;34.93;20.70;100279.94;5037362;28;20051;-73
2023/09/28 10:02:28;;;;;;;11.38;5.15;;;;;;;35.14;21.25;100280.22;5022321;28;20052;-75
2023/09/28 10:04:55;;;;;;;7.70;4.93;;;;;;;35.13;20.84;100298.78;5035817;28;20455;-71
2023/09/28 10:07:34;;;;;;;6.72;5.28;;;;;;;35.68;20.66;100276.53;5032863;28;20376;-73
2023/09/28 10:10:07;;;;;;;8.15;5.28;;;;;;;34.28;21.43;100279.63;5008185;28;20048;-73
2023/09/28 10:12:32;;;;;;;9.35;5.22;;;;;;;32.81;22.59;100263.47;5046620;28;20048;-72
2023/09/28 10:14:59;;;;;;;5.72;4.80;;;;;;;30.97;24.13;100277.78;5018122;28;20414;-71
2023/09/28 10:17:28;;;;;;;7.72;4.82;;;;;;;29.50;27.16;100280.00;5053319;28;20044;-73
2023/09/28 10:20:05;;;;;;;6.80;4.70;;;;;;;28.43;28.35;100272.13;5001610;28;20517;-72
2023/09/28 10:22:31;;;;;;;6.15;4.78;;;;;;;27.82;29.00;100263.94;5033994;28;20039;-73
2023/09/28 10:24:57;;;;;;;9.73;5.63;;;;;;;27.28;29.61;100277.59;5010457;28;20049;-72
2023/09/28 10:27:22;;;;;;;9.25;5.07;;;;;;;26.88;30.56;100265.50;4960937;28;20060;-73
2023/09/28 10:29:48;;;;;;;7.05;4.75;;;;;;;26.45;30.89;100265.59;4976356;28;20053;-72
2023/09/28 10:32:26;;;;;;;7.63;5.03;;;;;;;26.17;31.68;100273.75;4974358;28;20048;-72
2023/09/28 10:35:13;;;;;;;9.55;5.20;;;;;;;25.90;31.40;100274.50;5010171;28;20053;-74
2023/09/28 10:37:40;;;;;;;9.25;5.43;;;;;;;25.39;31.66;100262.72;4998845;28;20034;-73
2023/09/28 10:40:10;;;;;;;8.73;4.68;;;;;;;24.89;32.69;100254.22;4968771;28;20056;-76
2023/09/28 10:42:35;;;;;;;6.50;4.70;;;;;;;24.75;33.06;100290.50;4996996;28;20041;-76
2023/09/28 10:45:05;;;;;;;7.07;5.07;;;;;;;24.35;33.80;100263.63;5011916;28;20048;-78
2023/09/28 10:47:32;;;;;;;8.30;5.10;;;;;;;23.98;35.13;100265.22;5010721;28;20049;-76
2023/09/28 10:50:00;;;;;;;6.72;4.93;;;;;;;23.83;36.32;100265.16;4952617;28;20528;-73
2023/09/28 10:52:25;;;;;;;6.30;4.80;;;;;;;23.83;36.01;100258.84;4952658;28;20074;-77
2023/09/28 10:54:51;;;;;;;6.18;4.72;;;;;;;23.84;36.42;100271.44;4969983;28;20057;-73
2023/09/28 10:57:17;;;;;;;6.15;5.00;;;;;;;23.85;36.20;100256.81;4975848;28;20057;-75
2023/09/28 10:59:42;;;;;;;12.38;5.70;;;;;;;23.88;36.09;100278.25;4993437;28;20057;-74
2023/09/28 11:02:09;;;;;;;7.97;5.28;;;;;;;23.82;36.49;100254.44;5005936;28;20045;-72
2023/09/28 11:04:59;;;;;;;8.70;4.93;;;;;;;23.94;36.24;100244.81;5005847;28;20124;-73
2023/09/28 11:07:25;;;;;;;9.73;4.53;;;;;;;23.70;35.35;100247.72;4963677;28;20060;-72
2023/09/28 11:09:51;;;;;;;5.75;4.40;;;;;;;23.47;36.19;100253.94;5003922;28;20056;-75
2023/09/28 11:12:18;;;;;;;15.52;4.80;;;;;;;23.42;36.38;100244.59;4992857;28;20053;-75
2023/09/28 11:14:43;;;;;;;7.05;4.38;;;;;;;23.32;37.02;100233.09;5010887;28;20520;-75
2023/09/28 11:17:09;;;;;;;7.00;4.68;;;;;;;23.25;36.51;100232.94;5009648;28;20045;-73
2023/09/28 11:19:35;;;;;;;5.10;4.15;;;;;;;23.13;36.54;100250.69;5013593;28;20053;-73